createdAt,value
2023-01-27T00:01:48.008Z,7.80
2023-01-27T00:04:18.981Z,8.80
2023-01-27T00:06:49.339Z,7.90
2023-01-27T00:09:20.021Z,6.80
2023-01-27T00:12:08.181Z,7.40
2023-01-27T00:14:38.535Z,7.60
2023-01-27T00:17:09.225Z,7.90
2023-01-27T00:19:39.548Z,8.30
2023-01-27T00:22:29.115Z,8.60
2023-01-27T00:24:59.474Z,9.10
2023-01-27T00:27:29.881Z,8.70
2023-01-27T00:30:04.249Z,6.30
2023-01-27T00:32:52.517Z,7.40
2023-01-27T00:35:22.813Z,6.50
2023-01-27T00:37:53.482Z,7.40
2023-01-27T00:40:23.859Z,7.90
2023-01-27T00:42:54.152Z,7.90
2023-01-27T00:45:41.857Z,5.00
2023-01-27T00:48:12.403Z,6.40
2023-01-27T00:50:43.067Z,5.50
2023-01-27T00:53:13.428Z,6.00
2023-01-27T00:55:43.981Z,6.60
2023-01-27T00:58:14.306Z,6.00
2023-01-27T01:00:44.765Z,4.70
2023-01-27T01:03:15.196Z,5.70
2023-01-27T01:05:45.537Z,3.80
2023-01-27T01:08:15.957Z,4.50
2023-01-27T01:10:46.414Z,2.30
2023-01-27T01:13:17.052Z,4.00
2023-01-27T01:15:47.635Z,4.10
2023-01-27T01:18:18.321Z,3.10
2023-01-27T01:20:49.735Z,2.30
2023-01-27T01:23:20.304Z,3.20
2023-01-27T01:25:56.254Z,3.00
2023-01-27T01:28:27.135Z,2.90
2023-01-27T01:30:57.720Z,3.20
2023-01-27T01:33:28.337Z,3.70
2023-01-27T01:35:58.647Z,4.20
2023-01-27T01:38:29.115Z,3.40
2023-01-27T01:40:59.468Z,3.20
2023-01-27T01:43:29.905Z,3.00
2023-01-27T01:46:00.772Z,3.50
2023-01-27T01:48:35.638Z,3.50
2023-01-27T01:51:10.713Z,2.60
2023-01-27T01:53:45.103Z,3.30
2023-01-27T01:56:18.218Z,3.00
2023-01-27T01:58:49.368Z,3.70
2023-01-27T02:01:20.453Z,2.30
2023-01-27T02:04:00.218Z,3.00
2023-01-27T02:06:30.914Z,3.90
2023-01-27T02:09:01.813Z,3.40
2023-01-27T02:11:32.251Z,2.90
2023-01-27T02:14:04.018Z,3.50
2023-01-27T02:16:34.695Z,3.20
2023-01-27T02:19:05.637Z,5.30
2023-01-27T02:21:38.129Z,3.60
2023-01-27T02:24:12.813Z,3.90
2023-01-27T02:26:45.205Z,3.40
2023-01-27T02:29:17.159Z,2.90
2023-01-27T02:31:47.668Z,3.80
2023-01-27T02:34:22.911Z,3.30
2023-01-27T02:36:55.588Z,4.60
2023-01-27T02:39:29.240Z,4.70
2023-01-27T02:42:00.403Z,3.60
2023-01-27T02:44:30.774Z,3.50
2023-01-27T02:47:01.129Z,4.70
2023-01-27T02:49:31.881Z,4.00
2023-01-27T02:52:02.719Z,4.20
2023-01-27T02:54:33.945Z,3.10
2023-01-27T02:57:05.321Z,3.20
2023-01-27T02:59:36.495Z,4.00
2023-01-27T03:02:07.096Z,3.60
2023-01-27T03:04:38.859Z,4.30
2023-01-27T03:07:10.034Z,4.70
2023-01-27T03:09:40.411Z,4.50
2023-01-27T03:12:22.988Z,5.10
2023-01-27T03:17:59.564Z,4.50
2023-01-27T03:20:30.629Z,4.80
2023-01-27T03:23:00.957Z,5.00
2023-01-27T03:25:31.556Z,3.90
2023-01-27T03:28:03.520Z,5.10
2023-01-27T03:30:52.513Z,5.30
2023-01-27T03:39:42.996Z,4.80
2023-01-27T03:42:32.240Z,4.50
2023-01-27T03:45:20.433Z,4.50
2023-01-27T03:47:50.845Z,3.90
2023-01-27T03:50:31.089Z,4.00
2023-01-27T03:53:04.623Z,3.90
2023-01-27T03:55:36.073Z,3.00
2023-01-27T03:58:14.504Z,4.90
2023-01-27T04:00:45.150Z,4.90
2023-01-27T04:03:33.321Z,5.10
2023-01-27T04:06:24.633Z,4.60
2023-01-27T04:08:55.269Z,4.00
2023-01-27T04:11:43.467Z,4.20
2023-01-27T04:14:14.763Z,3.90
2023-01-27T04:16:45.248Z,3.70
2023-01-27T04:19:15.716Z,3.70
2023-01-27T04:21:46.070Z,4.20
2023-01-27T04:24:23.440Z,3.70
2023-01-27T04:26:55.815Z,4.50
2023-01-27T04:29:28.074Z,4.20
2023-01-27T04:31:58.951Z,3.30
2023-01-27T04:34:30.395Z,3.20
2023-01-27T04:37:03.219Z,4.60
2023-01-27T04:39:34.243Z,3.70
2023-01-27T04:42:05.041Z,4.80
2023-01-27T04:44:35.842Z,2.50
2023-01-27T04:47:06.748Z,3.30
2023-01-27T04:49:37.450Z,3.60
2023-01-27T04:52:08.418Z,3.40
2023-01-27T04:54:39.219Z,3.30
2023-01-27T04:57:10.522Z,3.30
2023-01-27T04:59:41.249Z,3.50
2023-01-27T05:02:12.022Z,3.10
2023-01-27T05:04:42.861Z,3.30
2023-01-27T05:07:13.567Z,2.90
2023-01-27T05:09:44.609Z,3.50
2023-01-27T05:12:15.213Z,4.10
2023-01-27T05:14:45.539Z,3.00
2023-01-27T05:17:16.122Z,2.90
2023-01-27T05:19:46.511Z,3.40
2023-01-27T05:22:16.813Z,4.00
2023-01-27T05:24:47.543Z,2.90
2023-01-27T05:27:18.699Z,4.20
2023-01-27T05:29:49.049Z,4.20
2023-01-27T05:32:19.375Z,4.00
2023-01-27T05:34:49.766Z,3.30
2023-01-27T05:37:20.088Z,4.20
2023-01-27T05:39:50.470Z,3.00
2023-01-27T05:42:20.780Z,3.60
2023-01-27T05:44:51.150Z,3.50
2023-01-27T05:47:21.556Z,4.00
2023-01-27T05:49:51.891Z,2.90
2023-01-27T05:52:22.225Z,4.00
2023-01-27T05:54:52.641Z,4.40
2023-01-27T05:57:23.381Z,3.80
2023-01-27T05:59:53.991Z,4.20
2023-01-27T06:02:24.413Z,3.90
2023-01-27T06:04:56.243Z,3.80
2023-01-27T06:07:26.887Z,3.30
2023-01-27T06:09:57.450Z,3.10
2023-01-27T06:12:27.927Z,3.50
2023-01-27T06:15:00.270Z,4.80
2023-01-27T06:17:30.624Z,3.70
2023-01-27T06:20:01.270Z,3.60
2023-01-27T06:22:31.715Z,2.70
2023-01-27T06:25:02.161Z,3.50
2023-01-27T06:27:32.607Z,3.80
2023-01-27T06:30:02.977Z,3.60
2023-01-27T06:32:33.388Z,3.80
2023-01-27T06:35:03.870Z,3.20
2023-01-27T06:37:34.215Z,3.20
2023-01-27T06:40:04.980Z,3.00
2023-01-27T06:42:38.835Z,3.40
2023-01-27T06:45:10.695Z,3.80
2023-01-27T06:47:41.332Z,4.00
2023-01-27T06:50:13.549Z,3.50
2023-01-27T06:52:44.484Z,4.10
2023-01-27T06:55:15.102Z,5.10
2023-01-27T06:57:47.791Z,3.50
2023-01-27T07:00:20.465Z,5.10
2023-01-27T07:02:51.374Z,3.40
2023-01-27T07:05:21.864Z,4.10
2023-01-27T07:07:52.416Z,4.50
2023-01-27T07:10:23.092Z,3.70
2023-01-27T07:12:53.973Z,4.40
2023-01-27T07:15:24.317Z,4.70
2023-01-27T07:17:54.728Z,3.00
2023-01-27T07:20:28.123Z,4.20
2023-01-27T07:23:00.588Z,4.00
2023-01-27T07:25:31.865Z,2.80
2023-01-27T07:28:02.811Z,2.40
2023-01-27T07:30:34.953Z,3.40
2023-01-27T07:33:09.331Z,3.70
2023-01-27T07:35:41.039Z,4.60
2023-01-27T07:38:12.047Z,4.20
2023-01-27T07:40:42.457Z,3.70
2023-01-27T07:43:13.029Z,4.20
2023-01-27T07:45:44.299Z,3.60
2023-01-27T07:48:14.869Z,3.20
2023-01-27T07:50:45.511Z,3.90
2023-01-27T07:53:15.851Z,2.30
2023-01-27T07:55:46.284Z,4.00
2023-01-27T07:58:16.667Z,4.20
2023-01-27T08:00:47.091Z,2.60
2023-01-27T08:03:24.261Z,2.60
2023-01-27T08:12:33.666Z,3.80
2023-01-27T08:15:04.161Z,3.30
2023-01-27T08:17:34.557Z,3.60
2023-01-27T08:20:06.038Z,4.00
2023-01-27T08:22:36.368Z,2.90
2023-01-27T08:25:07.764Z,3.70
2023-01-27T08:27:38.090Z,3.90
2023-01-27T08:30:10.298Z,3.30
2023-01-27T08:32:40.646Z,3.50
2023-01-27T08:35:11.782Z,3.20
2023-01-27T08:37:42.113Z,3.30
2023-01-27T08:40:15.278Z,3.00
2023-01-27T08:42:45.826Z,3.10
2023-01-27T08:45:16.225Z,3.40
2023-01-27T08:47:47.009Z,2.90
2023-01-27T08:50:17.660Z,4.10
2023-01-27T08:52:48.151Z,3.40
2023-01-27T08:55:18.949Z,3.20
2023-01-27T08:57:50.289Z,3.10
2023-01-27T09:00:22.355Z,3.30
2023-01-27T09:02:52.958Z,3.60
2023-01-27T09:05:25.715Z,2.70
2023-01-27T09:07:56.068Z,3.00
2023-01-27T09:10:26.479Z,2.70
2023-01-27T09:12:58.359Z,3.40
2023-01-27T09:15:28.709Z,3.60
2023-01-27T09:17:59.053Z,2.80
2023-01-27T09:20:30.028Z,2.90
2023-01-27T09:23:01.074Z,2.80
2023-01-27T09:25:31.645Z,3.90
2023-01-27T09:28:02.311Z,2.90
2023-01-27T09:30:32.726Z,3.20
2023-01-27T09:33:03.314Z,2.90
2023-01-27T09:35:39.411Z,3.60
2023-01-27T09:38:10.008Z,3.50
2023-01-27T09:40:50.138Z,3.00
2023-01-27T09:43:43.062Z,3.00
2023-01-27T09:46:39.517Z,3.50
2023-01-27T09:49:34.529Z,3.90
2023-01-27T09:52:18.445Z,3.90
2023-01-27T09:54:57.122Z,2.10
2023-01-27T09:57:36.011Z,2.90
2023-01-27T10:00:27.044Z,3.80
2023-01-27T10:03:12.619Z,3.10
2023-01-27T10:05:55.498Z,3.00
2023-01-27T10:08:41.882Z,2.30
2023-01-27T10:11:20.649Z,3.20
2023-01-27T10:14:01.018Z,2.40
2023-01-27T10:16:48.868Z,2.80
2023-01-27T10:19:34.979Z,2.20
2023-01-27T10:22:14.356Z,2.60
2023-01-27T10:24:58.276Z,2.50
2023-01-27T10:27:31.487Z,2.60
2023-01-27T10:30:07.458Z,2.60
2023-01-27T10:32:46.243Z,2.30
2023-01-27T10:35:21.280Z,2.40
2023-01-27T10:38:02.194Z,2.90
2023-01-27T10:40:37.397Z,3.90
2023-01-27T10:43:13.465Z,2.70
2023-01-27T10:45:52.087Z,3.70
2023-01-27T10:48:29.520Z,2.60
2023-01-27T10:51:02.996Z,2.30
2023-01-27T10:53:41.475Z,2.30
2023-01-27T10:56:15.827Z,1.50
2023-01-27T10:58:51.892Z,1.70
2023-01-27T11:01:30.640Z,1.70
2023-01-27T11:04:03.764Z,1.50
2023-01-27T11:06:38.669Z,1.90
2023-01-27T11:09:13.187Z,2.00
2023-01-27T11:11:47.077Z,1.90
2023-01-27T11:14:25.046Z,1.80
2023-01-27T11:16:57.273Z,1.50
2023-01-27T11:19:38.273Z,2.30
2023-01-27T11:22:18.190Z,1.80
2023-01-27T11:24:51.126Z,2.00
2023-01-27T11:27:31.869Z,1.80
2023-01-27T11:30:07.684Z,2.00
2023-01-27T11:32:45.931Z,1.40
2023-01-27T11:35:17.304Z,1.40
2023-01-27T11:37:49.185Z,1.60
2023-01-27T11:40:22.532Z,1.30
2023-01-27T11:42:52.903Z,1.40
2023-01-27T11:45:23.453Z,1.70
2023-01-27T11:47:56.847Z,1.70
2023-01-27T11:50:31.210Z,1.70
2023-01-27T11:53:10.821Z,1.80
2023-01-27T11:55:43.642Z,1.40
2023-01-27T12:00:49.270Z,2.00
2023-01-27T12:03:22.066Z,2.00
2023-01-27T12:05:56.887Z,2.20
2023-01-27T12:08:44.990Z,1.40
2023-01-27T12:11:26.400Z,2.70
2023-01-27T12:13:59.152Z,2.40
2023-01-27T12:16:44.528Z,2.40
2023-01-27T12:19:25.915Z,2.10
2023-01-27T12:21:59.482Z,1.90
2023-01-27T12:24:35.180Z,2.00
2023-01-27T12:27:06.733Z,1.50
2023-01-27T12:29:42.178Z,1.40
2023-01-27T12:32:18.819Z,1.60
2023-01-27T12:34:51.754Z,1.70
2023-01-27T12:39:56.995Z,1.70
2023-01-27T12:42:40.865Z,1.40
2023-01-27T12:45:29.525Z,1.60
2023-01-27T12:48:16.938Z,1.60
2023-01-27T12:50:58.130Z,1.40
2023-01-27T12:53:30.072Z,1.50
2023-01-27T12:56:02.967Z,1.50
2023-01-27T12:58:36.507Z,1.50
2023-01-27T13:01:09.113Z,1.30
2023-01-27T13:03:44.481Z,1.10
2023-01-27T13:06:18.152Z,4.60
2023-01-27T13:08:51.045Z,1.90
2023-01-27T13:13:53.253Z,1.30
2023-01-27T13:16:29.590Z,1.10
2023-01-27T13:19:01.652Z,0.90
2023-01-27T13:21:36.144Z,1.00
2023-01-27T13:24:11.514Z,1.30
2023-01-27T13:26:43.272Z,1.90
2023-01-27T13:29:20.139Z,1.30
2023-01-27T13:31:52.878Z,1.80
2023-01-27T13:34:29.716Z,1.70
2023-01-27T13:37:02.524Z,1.40
2023-01-27T13:39:46.391Z,1.80
2023-01-27T13:42:19.746Z,1.20
2023-01-27T13:44:52.172Z,1.90
2023-01-27T13:47:25.885Z,1.30
2023-01-27T13:49:58.551Z,1.30
2023-01-27T13:52:28.892Z,1.20
2023-01-27T13:55:00.016Z,1.50
2023-01-27T13:57:55.636Z,1.00
2023-01-27T14:00:31.938Z,1.40
2023-01-27T14:03:44.412Z,1.30
2023-01-27T14:06:25.697Z,1.70
2023-01-27T14:09:18.858Z,1.60
2023-01-27T14:11:52.086Z,1.30
2023-01-27T14:14:31.886Z,1.60
2023-01-27T14:17:12.324Z,0.90
2023-01-27T14:19:51.692Z,1.20
2023-01-27T14:22:31.039Z,0.90
2023-01-27T14:25:09.553Z,1.10
2023-01-27T14:27:43.680Z,1.00
2023-01-27T14:30:19.318Z,1.00
2023-01-27T14:32:55.247Z,1.00
2023-01-27T14:35:33.241Z,1.00
2023-01-27T14:38:11.440Z,1.20
2023-01-27T14:40:53.040Z,1.10
2023-01-27T14:43:30.015Z,0.90
2023-01-27T14:46:05.110Z,1.60
2023-01-27T14:48:55.595Z,1.00
2023-01-27T14:51:34.691Z,1.00
2023-01-27T14:54:20.741Z,1.10
2023-01-27T14:57:04.304Z,1.30
2023-01-27T14:59:41.282Z,1.60
2023-01-27T15:02:23.444Z,1.60
2023-01-27T15:04:58.754Z,1.70
2023-01-27T15:07:36.707Z,1.30
2023-01-27T15:10:17.234Z,1.90
2023-01-27T15:13:20.810Z,2.90
2023-01-27T15:16:17.600Z,1.80
2023-01-27T15:19:11.077Z,1.40
2023-01-27T15:24:25.751Z,2.20
2023-01-27T15:26:56.870Z,1.20
2023-01-27T15:29:28.669Z,1.20
2023-01-27T15:32:26.018Z,1.20
2023-01-27T15:35:29.342Z,1.70
2023-01-27T15:38:02.188Z,1.30
2023-01-27T15:40:32.587Z,3.30
2023-01-27T15:43:06.571Z,1.30
2023-01-27T15:45:38.177Z,1.10
2023-01-27T15:48:13.848Z,2.00
2023-01-27T15:50:48.255Z,2.80
2023-01-27T15:53:23.395Z,2.50
2023-01-27T15:55:55.741Z,2.30
2023-01-27T15:58:30.710Z,1.50
2023-01-27T16:01:02.648Z,2.10
2023-01-27T16:03:35.780Z,1.40
2023-01-27T16:06:09.818Z,1.60
2023-01-27T16:08:44.574Z,1.70
2023-01-27T16:11:42.057Z,2.00
2023-01-27T16:14:42.979Z,2.00
2023-01-27T16:17:27.913Z,1.60
2023-01-27T16:20:21.395Z,1.40
2023-01-27T16:25:28.143Z,1.50
2023-01-27T16:28:03.354Z,1.80
2023-01-27T16:30:36.689Z,1.80
2023-01-27T16:33:09.463Z,2.00
2023-01-27T16:35:45.310Z,2.30
2023-01-27T16:38:23.726Z,2.10
2023-01-27T16:40:55.563Z,1.70
2023-01-27T16:43:28.639Z,2.10
2023-01-27T16:46:00.592Z,2.40
2023-01-27T16:48:35.726Z,2.10
2023-01-27T16:51:14.808Z,1.70
2023-01-27T16:53:47.968Z,2.10
2023-01-27T16:56:24.215Z,2.40
2023-01-27T16:58:57.757Z,1.70
2023-01-27T17:01:29.943Z,2.90
2023-01-27T17:04:17.743Z,2.80
2023-01-27T17:06:50.559Z,2.40
2023-01-27T17:09:26.817Z,2.40
2023-01-27T17:11:57.144Z,2.40
2023-01-27T17:14:32.366Z,3.00
2023-01-27T17:17:04.949Z,2.30
2023-01-27T17:19:36.923Z,2.50
2023-01-27T17:22:10.150Z,3.50
2023-01-27T17:24:42.900Z,2.90
2023-01-27T17:27:22.153Z,3.60
2023-01-27T17:29:54.783Z,2.90
2023-01-27T17:32:27.306Z,3.50
2023-01-27T17:34:59.601Z,3.40
2023-01-27T17:37:32.278Z,3.10
2023-01-27T17:40:04.409Z,3.40
2023-01-27T17:42:35.714Z,3.00
2023-01-27T17:45:28.914Z,2.60
2023-01-27T17:48:01.596Z,2.30
2023-01-27T17:50:36.251Z,1.90
2023-01-27T17:53:08.841Z,3.00
2023-01-27T17:55:39.397Z,3.30
2023-01-27T17:58:13.706Z,2.50
2023-01-27T18:00:45.657Z,2.70
2023-01-27T18:03:20.922Z,2.00
2023-01-27T18:05:53.852Z,2.40
2023-01-27T18:10:55.228Z,2.00
2023-01-27T18:13:39.467Z,2.70
2023-01-27T18:16:18.816Z,2.30
2023-01-27T18:18:50.281Z,2.40
2023-01-27T18:21:24.367Z,2.00
2023-01-27T18:23:56.292Z,1.90
2023-01-27T18:26:28.937Z,1.80
2023-01-27T18:29:03.064Z,2.30
2023-01-27T18:31:36.985Z,2.40
2023-01-27T18:34:29.002Z,2.10
2023-01-27T18:37:02.454Z,2.60
2023-01-27T18:39:39.942Z,2.50
2023-01-27T18:42:18.424Z,2.60
2023-01-27T18:44:51.943Z,3.00
2023-01-27T18:47:33.557Z,1.90
2023-01-27T18:50:16.969Z,2.20
2023-01-27T18:52:49.998Z,2.00
2023-01-27T18:55:23.982Z,2.30
2023-01-27T18:57:57.655Z,2.30
2023-01-27T19:00:32.064Z,2.40
2023-01-27T19:03:04.361Z,2.30
2023-01-27T19:05:37.985Z,2.10
2023-01-27T19:08:11.311Z,2.10
2023-01-27T19:10:43.973Z,2.90
2023-01-27T19:13:17.029Z,2.60
2023-01-27T19:18:26.645Z,2.20
2023-01-27T19:20:59.414Z,2.20
2023-01-27T19:23:33.365Z,5.00
2023-01-27T19:26:07.063Z,2.70
2023-01-27T19:36:44.451Z,3.10
2023-01-27T19:39:17.047Z,3.10
2023-01-27T19:41:47.840Z,3.20
2023-01-27T19:44:18.409Z,2.30
2023-01-27T19:46:49.067Z,3.10
2023-01-27T19:49:20.628Z,2.40
2023-01-27T19:51:51.440Z,2.40
2023-01-27T19:54:22.205Z,2.20
2023-01-27T19:56:53.458Z,1.90
2023-01-27T19:59:25.086Z,2.70
2023-01-27T20:01:56.779Z,2.80
2023-01-27T20:04:27.806Z,2.30
2023-01-27T20:06:58.411Z,3.10
2023-01-27T20:09:29.157Z,2.50
2023-01-27T20:11:59.924Z,3.30
2023-01-27T20:14:40.821Z,3.00
2023-01-27T20:17:11.320Z,2.80
2023-01-27T20:19:43.249Z,2.70
2023-01-27T20:22:14.847Z,3.00
2023-01-27T20:24:45.563Z,2.60
2023-01-27T20:27:16.349Z,2.60
2023-01-27T20:29:47.636Z,4.60
2023-01-27T20:32:18.420Z,2.80
2023-01-27T20:34:49.184Z,4.70
2023-01-27T20:37:22.021Z,2.60
2023-01-27T20:39:53.032Z,2.20
2023-01-27T20:42:24.014Z,3.00
2023-01-27T20:44:54.385Z,2.80
2023-01-27T20:47:26.526Z,2.40
2023-01-27T20:49:56.884Z,1.90
2023-01-27T20:52:27.432Z,1.80
2023-01-27T20:54:57.861Z,2.40
2023-01-27T20:57:31.312Z,2.20
2023-01-27T21:00:01.782Z,2.10
2023-01-27T21:02:32.585Z,2.30
2023-01-27T21:05:03.748Z,1.70
2023-01-27T21:07:36.703Z,2.30
2023-01-27T21:10:08.633Z,2.30
2023-01-27T21:12:39.169Z,2.10
2023-01-27T21:15:12.299Z,2.60
2023-01-27T21:17:43.006Z,2.50
2023-01-27T21:20:14.923Z,3.20
2023-01-27T21:22:47.418Z,1.90
2023-01-27T21:25:18.562Z,2.70
2023-01-27T21:27:49.319Z,2.80
2023-01-27T21:30:20.573Z,2.60
2023-01-27T21:32:51.135Z,4.60
2023-01-27T21:35:21.771Z,3.00
2023-01-27T21:37:52.621Z,2.60
2023-01-27T21:40:23.180Z,3.00
2023-01-27T21:43:11.193Z,2.40
2023-01-27T21:45:41.806Z,2.20
2023-01-27T21:48:12.258Z,2.80
2023-01-27T21:50:42.668Z,2.80
2023-01-27T21:53:13.455Z,2.60
2023-01-27T21:55:43.846Z,3.60
2023-01-27T21:58:14.304Z,3.40
2023-01-27T22:00:45.125Z,2.70
2023-01-27T22:03:15.600Z,3.50
2023-01-27T22:05:46.239Z,3.10
2023-01-27T22:08:16.965Z,2.90
2023-01-27T22:10:47.418Z,2.60
2023-01-27T22:13:17.917Z,2.80
2023-01-27T22:15:52.587Z,3.30
2023-01-27T22:18:22.937Z,3.60
2023-01-27T22:20:53.289Z,2.10
2023-01-27T22:23:24.555Z,2.30
2023-01-27T22:25:55.288Z,2.50
2023-01-27T22:28:26.586Z,2.30
2023-01-27T22:31:01.106Z,2.30
2023-01-27T22:33:32.475Z,2.30
2023-01-27T22:36:04.146Z,1.80
2023-01-27T22:38:38.985Z,2.20
2023-01-27T22:41:09.939Z,2.50
2023-01-27T22:43:40.310Z,2.20
2023-01-27T22:46:10.943Z,2.30
2023-01-27T22:48:41.351Z,2.40
2023-01-27T22:51:11.700Z,2.20
2023-01-27T22:53:42.317Z,2.40
2023-01-27T22:56:12.733Z,2.30
2023-01-27T22:58:43.076Z,2.70
2023-01-27T23:01:13.495Z,2.60
2023-01-27T23:03:44.105Z,3.00
2023-01-27T23:06:15.173Z,1.60
2023-01-27T23:08:45.537Z,3.00
2023-01-27T23:11:15.999Z,2.40
2023-01-27T23:13:46.484Z,2.40
2023-01-27T23:16:16.946Z,2.20
2023-01-27T23:18:47.370Z,1.70
2023-01-27T23:21:17.759Z,1.90
2023-01-27T23:23:48.136Z,2.20
2023-01-27T23:26:18.720Z,2.40
2023-01-27T23:28:49.331Z,1.80
2023-01-27T23:31:19.836Z,2.20
2023-01-27T23:33:50.292Z,2.30
2023-01-27T23:36:20.736Z,1.80
2023-01-27T23:38:51.248Z,2.40
2023-01-27T23:41:21.787Z,1.90
2023-01-27T23:43:55.226Z,2.70
2023-01-27T23:46:25.901Z,1.90
2023-01-27T23:48:57.119Z,1.90
2023-01-27T23:51:27.457Z,2.50
2023-01-27T23:53:57.785Z,2.60
2023-01-27T23:56:28.087Z,2.60
2023-01-27T23:58:58.347Z,1.80
